Time;durP1;ratioP1;P1;durP2;ratioP2;P2;SDS_P1;SDS_P2;PMS_P1;PMS_P2;Temp;Humidity;BMP_temperature;BMP_pressure;BME280_temperature;BME280_humidity;BME280_pressure;Samples;Min_cycle;Max_cycle;Signal;HPM_P1;HPM_P2
2022/11/06 00:01:55;;;;;;;23.97;11.30;;;9.10;99.90;;;;;;4934535;29;20214;-80
2022/11/06 00:04:22;;;;;;;26.13;11.20;;;9.00;99.90;;;;;;4935150;29;20194;-80
2022/11/06 00:06:49;;;;;;;28.27;12.27;;;9.00;99.90;;;;;;4934712;29;20206;-78
2022/11/06 00:09:18;;;;;;;22.50;11.47;;;9.00;99.90;;;;;;4936159;29;20197;-79
2022/11/06 00:11:48;;;;;;;28.00;11.87;;;9.00;99.90;;;;;;4935791;29;20219;-79
2022/11/06 00:14:16;;;;;;;24.40;12.43;;;9.10;99.90;;;;;;4936078;29;20290;-79
2022/11/06 00:16:44;;;;;;;28.57;12.23;;;9.00;99.90;;;;;;4934654;29;20261;-78
2022/11/06 00:19:11;;;;;;;27.77;11.93;;;9.00;99.90;;;;;;4935802;29;20195;-78
2022/11/06 00:21:39;;;;;;;22.77;12.07;;;8.90;99.90;;;;;;4934728;29;20278;-78
2022/11/06 00:24:08;;;;;;;26.37;12.20;;;8.90;99.90;;;;;;4918672;29;20269;-79
2022/11/06 00:26:35;;;;;;;22.17;11.03;;;8.90;99.90;;;;;;4933949;29;20660;-78
2022/11/06 00:29:03;;;;;;;21.87;11.20;;;8.90;99.90;;;;;;4918406;29;20209;-79
2022/11/06 00:31:34;;;;;;;25.90;11.83;;;8.80;99.90;;;;;;4918154;29;20216;-78
2022/11/06 00:34:02;;;;;;;25.47;10.77;;;8.90;99.90;;;;;;4933886;29;20235;-79
2022/11/06 00:36:29;;;;;;;24.40;11.37;;;8.90;99.90;;;;;;4935138;29;20203;-78
2022/11/06 00:38:57;;;;;;;25.20;11.30;;;8.80;99.90;;;;;;4935921;29;20249;-79
2022/11/06 00:41:26;;;;;;;30.13;10.97;;;8.90;99.90;;;;;;4921495;29;20226;-78
2022/11/06 00:43:55;;;;;;;23.40;10.90;;;8.90;99.90;;;;;;4937483;29;20199;-79
2022/11/06 00:46:23;;;;;;;24.63;10.83;;;8.90;99.90;;;;;;4937328;29;20210;-79
2022/11/06 00:48:52;;;;;;;28.90;12.53;;;8.80;99.90;;;;;;4937293;29;20238;-79
2022/11/06 00:51:23;;;;;;;23.67;10.97;;;8.80;99.90;;;;;;4921588;29;20207;-79
2022/11/06 00:53:55;;;;;;;21.57;11.33;;;8.80;99.90;;;;;;4937357;29;20206;-79
2022/11/06 00:56:23;;;;;;;29.17;12.07;;;8.70;99.90;;;;;;4921229;29;20202;-78
2022/11/06 00:58:50;;;;;;;21.87;11.27;;;8.70;99.90;;;;;;4937069;29;20544;-79
2022/11/06 01:01:23;;;;;;;24.63;11.03;;;8.70;99.90;;;;;;4937501;29;20215;-78
2022/11/06 01:03:59;;;;;;;22.73;10.97;;;8.70;99.90;;;;;;4937601;29;20234;-78
2022/11/06 01:06:37;;;;;;;26.73;11.37;;;8.70;99.90;;;;;;4937058;29;20211;-79
2022/11/06 01:09:05;;;;;;;26.87;11.50;;;8.80;99.90;;;;;;4937238;29;20195;-79
2022/11/06 01:11:43;;;;;;;22.30;10.30;;;8.80;99.90;;;;;;4937604;29;20290;-79
2022/11/06 01:14:30;;;;;;;26.77;11.40;;;8.80;99.90;;;;;;4937029;29;20207;-78
2022/11/06 01:16:57;;;;;;;24.93;11.13;;;8.70;99.90;;;;;;4937116;29;20541;-79
2022/11/06 01:19:24;;;;;;;24.17;11.20;;;8.70;99.90;;;;;;4937002;29;20202;-80
2022/11/06 01:21:52;;;;;;;22.00;11.10;;;8.70;99.90;;;;;;4938186;29;20226;-79
2022/11/06 01:24:25;;;;;;;26.30;11.03;;;8.70;99.90;;;;;;4937055;29;20198;-79
2022/11/06 01:26:53;;;;;;;26.80;11.20;;;8.80;99.90;;;;;;4920822;29;21436;-78
2022/11/06 01:29:40;;;;;;;21.70;10.50;;;8.80;99.90;;;;;;4921058;29;20217;-79
2022/11/06 01:32:07;;;;;;;25.87;10.43;;;8.80;99.90;;;;;;4936652;29;20718;-79
2022/11/06 01:34:34;;;;;;;27.60;12.97;;;8.90;99.90;;;;;;4920568;29;20746;-79
2022/11/06 01:37:01;;;;;;;24.50;11.27;;;8.80;99.90;;;;;;4937738;29;20198;-78
2022/11/06 01:39:30;;;;;;;23.07;11.23;;;8.80;99.90;;;;;;4936278;29;20201;-79
2022/11/06 01:41:57;;;;;;;24.67;11.67;;;8.70;99.90;;;;;;4936292;29;20309;-79
2022/11/06 01:44:42;;;;;;;24.20;11.07;;;8.60;99.90;;;;;;4936976;29;20225;-79
2022/11/06 01:47:35;;;;;;;28.13;12.10;;;8.60;99.90;;;;;;4937781;29;20280;-80
2022/11/06 01:50:07;;;;;;;28.07;12.53;;;8.50;99.90;;;;;;4934111;29;20233;-79
2022/11/06 01:52:35;;;;;;;24.30;11.83;;;8.50;99.90;;;;;;4920623;29;20213;-79
2022/11/06 01:55:10;;;;;;;31.87;12.67;;;8.50;99.90;;;;;;4936050;29;20802;-79
2022/11/06 01:57:38;;;;;;;23.87;11.43;;;8.50;99.90;;;;;;4936145;29;20205;-79
2022/11/06 02:00:06;;;;;;;24.77;11.80;;;8.50;99.90;;;;;;4920263;29;20194;-78
2022/11/06 02:02:34;;;;;;;27.20;12.33;;;8.50;99.90;;;;;;4936176;29;20210;-79
2022/11/06 02:05:01;;;;;;;27.33;11.90;;;8.40;99.90;;;;;;4935687;29;20239;-79
2022/11/06 02:07:28;;;;;;;22.47;11.70;;;8.30;99.90;;;;;;4936006;29;20719;-79
2022/11/06 02:09:55;;;;;;;27.30;12.23;;;8.30;99.90;;;;;;4936824;29;20602;-79
2022/11/06 02:12:40;;;;;;;27.17;12.10;;;8.20;99.90;;;;;;4937023;29;20210;-79
2022/11/06 02:15:07;;;;;;;25.63;11.83;;;8.20;99.90;;;;;;4935651;29;20199;-78
2022/11/06 02:17:52;;;;;;;31.07;12.20;;;8.10;99.90;;;;;;4935833;29;20213;-79
2022/11/06 02:20:34;;;;;;;27.40;13.03;;;8.10;99.90;;;;;;4935754;29;20591;-80
2022/11/06 02:23:19;;;;;;;29.60;12.50;;;8.10;99.90;;;;;;4920007;29;20273;-79
2022/11/06 02:26:24;;;;;;;30.30;12.83;;;8.10;99.90;;;;;;4919672;29;20218;-79
2022/11/06 02:28:56;;;;;;;25.57;12.43;;;8.10;99.90;;;;;;4935230;29;20242;-79
2022/11/06 02:31:28;;;;;;;32.10;13.33;;;8.10;99.90;;;;;;4935475;29;20210;-78
2022/11/06 02:34:01;;;;;;;30.33;13.97;;;8.10;99.90;;;;;;4936560;29;20224;-79
2022/11/06 02:36:36;;;;;;;25.43;13.27;;;8.10;99.90;;;;;;4935386;29;20204;-79
2022/11/06 02:39:08;;;;;;;26.83;13.57;;;8.10;99.90;;;;;;4935231;29;20261;-78
2022/11/06 02:41:39;;;;;;;27.30;13.47;;;8.10;99.90;;;;;;4936311;29;20222;-78
2022/11/06 02:44:10;;;;;;;26.87;12.50;;;8.00;99.90;;;;;;4919637;29;20199;-79
2022/11/06 02:46:45;;;;;;;31.30;12.93;;;7.90;99.90;;;;;;4919182;29;20656;-79
2022/11/06 02:49:27;;;;;;;40.70;14.17;;;7.90;99.90;;;;;;4934981;29;20240;-79
2022/11/06 02:51:59;;;;;;;32.33;14.97;;;7.80;99.90;;;;;;4919216;29;20686;-77
2022/11/06 02:54:30;;;;;;;31.03;13.97;;;7.70;99.90;;;;;;4934874;29;20209;-78
2022/11/06 02:57:02;;;;;;;34.47;13.77;;;7.70;99.90;;;;;;4934916;29;20216;-78
2022/11/06 02:59:54;;;;;;;31.93;15.10;;;7.70;99.90;;;;;;4935041;29;20743;-79
2022/11/06 03:02:36;;;;;;;35.37;14.50;;;7.70;99.90;;;;;;4934630;29;20226;-76
2022/11/06 03:05:07;;;;;;;30.83;14.60;;;7.70;99.90;;;;;;4919557;29;20200;-79
2022/11/06 03:07:39;;;;;;;34.87;15.57;;;7.70;99.90;;;;;;4934875;29;20213;-79
2022/11/06 03:10:07;;;;;;;30.13;15.33;;;7.60;99.90;;;;;;4935893;29;20201;-78
2022/11/06 03:12:54;;;;;;;37.80;16.03;;;7.50;99.90;;;;;;4919197;29;20194;-79
2022/11/06 03:15:25;;;;;;;35.97;16.30;;;7.50;99.90;;;;;;4935765;29;20554;-79
2022/11/06 03:18:06;;;;;;;49.80;17.87;;;7.60;99.90;;;;;;4935179;29;20209;-79
2022/11/06 03:20:42;;;;;;;39.73;17.73;;;7.50;99.90;;;;;;4934771;29;20208;-79
2022/11/06 03:23:17;;;;;;;36.80;16.70;;;7.50;99.90;;;;;;4934750;29;20213;-79
2022/11/06 03:25:51;;;;;;;37.07;16.87;;;7.50;99.90;;;;;;4934568;29;20209;-78
2022/11/06 03:28:29;;;;;;;43.53;17.80;;;7.50;99.90;;;;;;4935563;29;20809;-79
2022/11/06 03:31:00;;;;;;;49.13;18.40;;;7.50;99.90;;;;;;4935986;29;20680;-79
2022/11/06 03:33:54;;;;;;;40.23;17.20;;;7.50;99.90;;;;;;4935529;29;20713;-79
2022/11/06 03:36:26;;;;;;;41.47;16.73;;;7.60;99.90;;;;;;4935408;29;20212;-78
2022/11/06 03:39:04;;;;;;;41.80;17.37;;;7.60;99.90;;;;;;4918787;29;20644;-78
2022/11/06 03:41:55;;;;;;;38.30;16.57;;;7.60;99.90;;;;;;4934412;29;20232;-79
2022/11/06 03:44:27;;;;;;;35.77;16.10;;;7.60;99.90;;;;;;4934408;29;20218;-79
2022/11/06 03:47:14;;;;;;;33.73;15.83;;;7.50;99.90;;;;;;4934330;29;20193;-80
2022/11/06 03:49:47;;;;;;;35.50;16.53;;;7.40;99.90;;;;;;4934184;29;20249;-79
2022/11/06 03:52:30;;;;;;;32.50;15.70;;;7.40;99.90;;;;;;4934351;29;20288;-79
2022/11/06 03:55:02;;;;;;;38.37;16.20;;;7.40;99.90;;;;;;4934124;29;20232;-79
2022/11/06 03:57:40;;;;;;;37.10;16.33;;;7.40;99.90;;;;;;4935600;29;20217;-76
2022/11/06 04:00:09;;;;;;;35.83;16.73;;;7.30;99.90;;;;;;4934237;29;20251;-78
2022/11/06 04:02:40;;;;;;;37.77;16.37;;;7.30;99.90;;;;;;4935619;29;20241;-79
2022/11/06 04:05:21;;;;;;;35.20;15.90;;;7.40;99.90;;;;;;4934213;29;20214;-78
2022/11/06 04:16:17;;;;;;;35.07;16.33;;;7.30;99.90;;;;;;4938982;29;20222;-78
2022/11/06 04:18:44;;;;;;;34.87;15.60;;;7.20;99.90;;;;;;4938350;29;20204;-79
2022/11/06 04:21:42;;;;;;;44.27;18.20;;;7.20;99.90;;;;;;4937728;29;20224;-79
2022/11/06 04:27:36;;;;;;;29.70;14.67;;;7.10;99.90;;;;;;4917868;29;20206;-79
2022/11/06 04:30:08;;;;;;;40.23;16.17;;;7.00;99.90;;;;;;4902188;29;20214;-79
2022/11/06 04:32:56;;;;;;;37.37;17.20;;;7.10;99.90;;;;;;4917873;29;20660;-78
2022/11/06 04:35:53;;;;;;;40.20;17.17;;;7.00;99.90;;;;;;4917653;29;21113;-79
2022/11/06 04:38:46;;;;;;;38.70;17.27;;;7.00;99.90;;;;;;4917905;29;20195;-79
2022/11/06 04:41:36;;;;;;;48.20;17.60;;;7.00;99.90;;;;;;4917672;29;20249;-79
2022/11/06 04:44:40;;;;;;;36.47;16.20;;;7.10;99.90;;;;;;4901725;29;20270;-78
2022/11/06 04:47:10;;;;;;;40.37;16.67;;;6.90;99.90;;;;;;4879954;29;20225;-78
2022/11/06 04:49:41;;;;;;;36.77;16.40;;;7.00;99.90;;;;;;4864345;29;20240;-78
2022/11/06 04:52:15;;;;;;;46.53;16.20;;;6.90;99.90;;;;;;4864410;29;20245;-77
2022/11/06 04:54:43;;;;;;;36.73;16.73;;;6.80;99.90;;;;;;4879455;29;20208;-78
2022/11/06 04:57:10;;;;;;;42.20;16.30;;;6.80;99.90;;;;;;4864201;29;20204;-77
2022/11/06 04:59:37;;;;;;;34.27;15.43;;;6.80;99.90;;;;;;4864090;29;20215;-77
2022/11/06 05:02:05;;;;;;;43.90;17.03;;;6.80;99.90;;;;;;4882922;29;20234;-78
2022/11/06 05:04:32;;;;;;;42.93;17.10;;;6.80;99.90;;;;;;4898172;29;20209;-78
2022/11/06 05:06:59;;;;;;;36.60;16.43;;;6.90;99.90;;;;;;4898099;29;20673;-78
2022/11/06 05:09:26;;;;;;;39.57;16.27;;;6.90;99.90;;;;;;4898369;29;20215;-78
2022/11/06 05:11:53;;;;;;;32.70;15.13;;;6.80;99.90;;;;;;4898057;29;20202;-79
2022/11/06 05:14:20;;;;;;;29.63;14.70;;;6.80;99.90;;;;;;4898145;29;20206;-78
2022/11/06 05:16:47;;;;;;;48.87;16.07;;;6.80;99.90;;;;;;4898210;29;20208;-78
2022/11/06 05:19:14;;;;;;;45.60;15.03;;;6.80;99.90;;;;;;4898143;29;20210;-78
2022/11/06 05:24:26;;;;;;;40.23;15.53;;;6.70;99.90;;;;;;4936523;29;20208;-78
2022/11/06 05:26:53;;;;;;;37.17;13.93;;;6.60;99.90;;;;;;4936537;29;20233;-78
2022/11/06 05:29:25;;;;;;;35.97;14.70;;;6.60;99.90;;;;;;4936597;29;20295;-78
2022/11/06 05:31:52;;;;;;;34.20;13.97;;;6.70;99.90;;;;;;4921045;29;20223;-78
2022/11/06 05:34:20;;;;;;;32.73;14.40;;;6.70;99.90;;;;;;4936872;29;20232;-78
2022/11/06 05:36:47;;;;;;;37.50;14.57;;;6.60;99.90;;;;;;4936570;29;20202;-79
2022/11/06 05:39:14;;;;;;;42.17;16.43;;;6.60;99.90;;;;;;4936343;29;20200;-78
2022/11/06 05:41:41;;;;;;;36.57;15.13;;;6.50;99.90;;;;;;4936328;29;20229;-77
2022/11/06 05:44:08;;;;;;;38.63;16.50;;;6.50;99.90;;;;;;4920617;29;20210;-77
2022/11/06 05:46:35;;;;;;;38.70;16.17;;;6.50;99.90;;;;;;4920421;29;20204;-78
2022/11/06 05:49:16;;;;;;;41.13;16.83;;;6.50;99.90;;;;;;4936530;29;20239;-78
2022/11/06 05:51:58;;;;;;;46.00;16.10;;;6.40;99.90;;;;;;4936082;29;20208;-77
2022/11/06 05:54:25;;;;;;;45.13;16.23;;;6.20;99.90;;;;;;4937831;29;20210;-78
2022/11/06 05:56:52;;;;;;;44.57;16.03;;;6.20;99.90;;;;;;4935905;29;20217;-79
2022/11/06 05:59:19;;;;;;;32.83;14.97;;;6.20;99.90;;;;;;4937264;29;20200;-79
2022/11/06 06:01:46;;;;;;;29.40;13.70;;;6.20;99.90;;;;;;4937534;29;20710;-78
2022/11/06 06:04:13;;;;;;;39.63;14.03;;;6.20;99.90;;;;;;4937128;29;20208;-79
2022/11/06 06:06:41;;;;;;;63.93;14.30;;;6.20;99.90;;;;;;4936036;29;20210;-79
2022/11/06 06:09:08;;;;;;;63.03;15.60;;;6.10;99.90;;;;;;4920505;29;20663;-78
2022/11/06 06:11:35;;;;;;;52.43;14.40;;;6.10;99.90;;;;;;4936202;29;20196;-77
2022/11/06 06:14:02;;;;;;;51.43;14.70;;;6.00;99.90;;;;;;4935454;29;20206;-79
2022/11/06 06:16:29;;;;;;;63.60;13.50;;;5.90;99.90;;;;;;4919884;29;20214;-78
2022/11/06 06:18:56;;;;;;;37.20;13.33;;;5.90;99.90;;;;;;4937076;29;20663;-78
2022/11/06 06:21:23;;;;;;;44.67;14.63;;;5.90;99.90;;;;;;4937154;29;20275;-77
2022/11/06 06:23:50;;;;;;;33.37;14.53;;;5.90;99.90;;;;;;4935753;29;20549;-76
2022/11/06 06:26:17;;;;;;;57.87;15.07;;;5.90;99.90;;;;;;4936652;29;20224;-76
2022/11/06 06:28:48;;;;;;;104.53;15.80;;;5.90;99.90;;;;;;4919437;29;20199;-77
2022/11/06 06:31:15;;;;;;;39.57;13.97;;;5.80;99.90;;;;;;4935379;29;20205;-78
2022/11/06 06:33:42;;;;;;;85.80;15.50;;;5.80;99.90;;;;;;4936702;29;20614;-77
2022/11/06 06:36:09;;;;;;;40.07;15.50;;;5.80;99.90;;;;;;4934546;29;20228;-78
2022/11/06 06:38:36;;;;;;;48.03;16.00;;;5.90;99.90;;;;;;4936615;29;20552;-79
2022/11/06 06:41:05;;;;;;;54.70;15.53;;;5.90;99.90;;;;;;4935276;29;20203;-80
2022/11/06 06:43:33;;;;;;;44.53;14.27;;;5.80;99.90;;;;;;4936295;29;20584;-79
2022/11/06 06:46:01;;;;;;;47.47;16.37;;;5.80;99.90;;;;;;4935493;29;20203;-78
2022/11/06 06:48:28;;;;;;;34.20;14.93;;;5.90;99.90;;;;;;4936206;29;20713;-78
2022/11/06 06:51:00;;;;;;;34.50;15.50;;;6.00;99.90;;;;;;4936424;29;20194;-78
2022/11/06 06:53:28;;;;;;;36.97;15.63;;;6.10;99.90;;;;;;4934969;29;20197;-77
2022/11/06 06:55:58;;;;;;;70.57;17.90;;;6.10;99.90;;;;;;4935019;29;20205;-77
2022/11/06 06:58:25;;;;;;;38.67;15.23;;;6.00;99.90;;;;;;4935065;29;20207;-77
2022/11/06 07:01:03;;;;;;;58.10;14.00;;;6.00;99.90;;;;;;4935030;29;20215;-77
2022/11/06 07:03:31;;;;;;;39.53;14.07;;;6.10;99.90;;;;;;4934974;29;20260;-78
2022/11/06 07:05:58;;;;;;;27.07;12.73;;;6.10;99.90;;;;;;4934912;29;20209;-78
2022/11/06 07:08:26;;;;;;;36.03;14.30;;;6.00;99.90;;;;;;4935477;29;20686;-77
2022/11/06 07:11:07;;;;;;;31.93;13.87;;;6.00;99.90;;;;;;4934778;29;20214;-78
2022/11/06 07:13:34;;;;;;;31.83;12.07;;;6.10;99.90;;;;;;4934763;29;20308;-80
2022/11/06 07:16:07;;;;;;;31.87;13.07;;;6.10;99.90;;;;;;4935164;29;20209;-79
2022/11/06 07:18:37;;;;;;;39.00;12.87;;;6.30;99.90;;;;;;4934811;29;20236;-78
2022/11/06 07:21:09;;;;;;;33.20;13.80;;;6.20;99.90;;;;;;4934722;29;20208;-78
2022/11/06 07:23:36;;;;;;;34.17;14.00;;;6.30;99.90;;;;;;4935318;29;20257;-78
2022/11/06 07:26:04;;;;;;;29.03;13.13;;;6.50;99.90;;;;;;4934664;29;20198;-78
2022/11/06 07:28:31;;;;;;;46.17;14.13;;;6.50;99.90;;;;;;4935306;29;20204;-78
2022/11/06 07:31:03;;;;;;;33.70;13.03;;;6.50;99.90;;;;;;4919161;29;20214;-79
2022/11/06 07:33:30;;;;;;;30.07;12.93;;;6.60;99.90;;;;;;4934926;29;20670;-79
2022/11/06 07:36:13;;;;;;;26.10;12.90;;;6.60;99.90;;;;;;4934985;29;20306;-79
2022/11/06 07:38:42;;;;;;;22.77;11.70;;;6.70;99.90;;;;;;4919189;29;20264;-78
2022/11/06 07:41:11;;;;;;;28.73;10.73;;;6.70;99.90;;;;;;4919140;29;20211;-78
2022/11/06 07:43:39;;;;;;;20.20;10.53;;;6.80;99.90;;;;;;4935654;29;20715;-77
2022/11/06 07:46:13;;;;;;;24.93;11.30;;;6.80;99.90;;;;;;4934688;29;20209;-77
2022/11/06 07:48:40;;;;;;;27.07;11.47;;;6.90;99.90;;;;;;4936649;29;20235;-77
2022/11/06 07:51:10;;;;;;;38.70;13.50;;;6.90;99.90;;;;;;4938745;29;20198;-77
2022/11/06 07:53:38;;;;;;;25.43;11.30;;;6.90;99.90;;;;;;4938812;29;20209;-77
2022/11/06 07:56:05;;;;;;;21.53;11.13;;;7.00;99.90;;;;;;4939879;29;20230;-77
2022/11/06 07:58:32;;;;;;;23.53;11.93;;;7.00;99.90;;;;;;4922701;29;20240;-78
2022/11/06 08:00:59;;;;;;;29.17;12.07;;;7.10;99.90;;;;;;4938708;29;20198;-77
2022/11/06 08:03:28;;;;;;;35.50;11.73;;;7.10;99.90;;;;;;4922488;29;20271;-76
2022/11/06 08:05:57;;;;;;;20.20;10.77;;;6.90;99.90;;;;;;4939537;29;20274;-78
2022/11/06 08:08:24;;;;;;;34.20;10.97;;;6.90;99.90;;;;;;4922916;29;20333;-76
2022/11/06 08:10:52;;;;;;;34.90;11.60;;;6.80;99.90;;;;;;4922585;29;20285;-77
2022/11/06 08:13:19;;;;;;;23.17;11.10;;;6.60;99.90;;;;;;4922512;29;20527;-77
2022/11/06 08:15:46;;;;;;;37.37;11.57;;;6.60;99.90;;;;;;4938010;29;20209;-76
2022/11/06 08:18:13;;;;;;;27.70;11.70;;;6.70;99.90;;;;;;4938226;29;20217;-77
2022/11/06 08:20:42;;;;;;;34.57;12.83;;;6.60;99.90;;;;;;4921984;29;20207;-76
2022/11/06 08:23:11;;;;;;;30.90;11.50;;;6.50;99.90;;;;;;4937802;29;20230;-76
2022/11/06 08:25:39;;;;;;;26.73;11.73;;;6.50;99.90;;;;;;4937877;29;20564;-75
2022/11/06 08:28:06;;;;;;;21.07;11.50;;;6.50;99.90;;;;;;4938898;29;20214;-77
2022/11/06 08:30:33;;;;;;;29.30;12.37;;;6.60;99.90;;;;;;4938140;29;20206;-76
2022/11/06 08:33:02;;;;;;;25.40;12.07;;;6.60;99.90;;;;;;4937791;29;20202;-76
2022/11/06 08:35:30;;;;;;;44.27;14.60;;;6.70;99.90;;;;;;4921875;29;20222;-77
2022/11/06 08:37:57;;;;;;;40.70;13.27;;;6.70;99.90;;;;;;4937769;29;20289;-77
2022/11/06 08:40:25;;;;;;;22.03;11.53;;;6.80;99.90;;;;;;4937436;29;20237;-77
2022/11/06 08:43:02;;;;;;;22.23;12.10;;;6.90;99.90;;;;;;4937298;29;20705;-77
2022/11/06 08:45:29;;;;;;;24.63;12.50;;;7.10;99.90;;;;;;4937408;29;20575;-77
2022/11/06 08:48:01;;;;;;;29.23;13.13;;;7.20;99.90;;;;;;4938212;29;20626;-76
2022/11/06 08:50:30;;;;;;;35.87;12.33;;;7.20;99.90;;;;;;4937386;29;20218;-77
2022/11/06 08:52:57;;;;;;;23.37;11.83;;;7.30;99.90;;;;;;4937274;29;20202;-75
2022/11/06 08:55:24;;;;;;;31.73;12.67;;;7.50;99.90;;;;;;4937495;29;20204;-75
2022/11/06 08:57:54;;;;;;;22.60;11.40;;;7.60;99.90;;;;;;4921307;29;20679;-76
2022/11/06 09:00:21;;;;;;;22.10;10.97;;;7.70;99.90;;;;;;4935534;29;20204;-75
2022/11/06 09:02:49;;;;;;;20.90;11.73;;;7.60;99.90;;;;;;4937960;29;20306;-77
2022/11/06 09:05:16;;;;;;;19.20;10.57;;;7.70;99.90;;;;;;4938228;29;20585;-76
2022/11/06 09:07:43;;;;;;;28.83;11.43;;;7.80;99.90;;;;;;4921213;29;20238;-76
2022/11/06 09:10:10;;;;;;;19.90;9.80;;;7.70;99.90;;;;;;4921194;29;20194;-76
2022/11/06 09:12:37;;;;;;;18.63;9.80;;;7.70;99.90;;;;;;4921410;29;20209;-77
2022/11/06 09:15:04;;;;;;;20.93;9.67;;;7.70;99.90;;;;;;4936765;29;20262;-76
2022/11/06 09:17:31;;;;;;;18.77;10.13;;;7.50;99.90;;;;;;4938061;29;20658;-76
2022/11/06 09:19:58;;;;;;;16.20;9.90;;;7.60;99.90;;;;;;4921282;29;20202;-77
2022/11/06 09:22:27;;;;;;;20.57;10.40;;;7.60;99.90;;;;;;4937880;29;20282;-77
2022/11/06 09:24:54;;;;;;;19.83;10.43;;;7.50;99.90;;;;;;4938085;29;20277;-76
2022/11/06 09:27:30;;;;;;;19.13;10.30;;;7.70;99.90;;;;;;4936785;29;20648;-76
2022/11/06 09:29:57;;;;;;;21.30;11.10;;;7.70;99.90;;;;;;4921289;29;20598;-77
2022/11/06 09:32:24;;;;;;;21.90;11.10;;;7.80;99.90;;;;;;4936487;29;20328;-79
2022/11/06 09:34:51;;;;;;;21.33;11.17;;;8.00;99.90;;;;;;4920832;29;20558;-78
2022/11/06 09:37:21;;;;;;;29.60;12.10;;;8.00;99.90;;;;;;4937508;29;20211;-77
2022/11/06 09:39:48;;;;;;;19.13;10.77;;;8.10;99.90;;;;;;4920608;29;20645;-77
2022/11/06 09:42:33;;;;;;;26.20;11.70;;;8.20;99.90;;;;;;4937478;29;20266;-78
2022/11/06 09:45:10;;;;;;;18.83;9.93;;;8.50;99.90;;;;;;4936440;29;20567;-79
2022/11/06 09:47:42;;;;;;;16.20;9.40;;;8.50;99.90;;;;;;4936590;29;20555;-77
2022/11/06 09:50:16;;;;;;;18.77;9.50;;;8.50;99.90;;;;;;4945811;28;20242;-77
2022/11/06 09:52:49;;;;;;;18.70;9.67;;;8.50;99.90;;;;;;4936390;29;20657;-78
2022/11/06 09:55:33;;;;;;;18.27;9.67;;;8.70;99.90;;;;;;4936118;29;20217;-78
2022/11/06 09:58:07;;;;;;;16.40;8.87;;;8.60;99.90;;;;;;4937100;29;20199;-77
2022/11/06 10:00:38;;;;;;;16.47;9.67;;;8.30;99.90;;;;;;4920367;29;20280;-80
2022/11/06 10:03:18;;;;;;;21.03;9.73;;;8.10;99.90;;;;;;4937453;29;20238;-80
2022/11/06 10:05:46;;;;;;;18.73;9.30;;;8.40;99.90;;;;;;4937579;29;20273;-80
2022/11/06 10:08:21;;;;;;;16.80;9.90;;;8.50;99.90;;;;;;4936274;29;20203;-85
2022/11/06 10:11:03;;;;;;;18.83;9.93;;;8.70;99.90;;;;;;4919372;29;20198;-79
2022/11/06 10:14:07;;;;;;;20.57;10.27;;;8.80;99.90;;;;;;4936936;29;20660;-79
2022/11/06 10:17:11;;;;;;;17.97;10.37;;;8.90;99.90;;;;;;4936727;29;20571;-78
2022/11/06 10:19:47;;;;;;;18.63;9.87;;;9.00;99.90;;;;;;4948942;29;20205;-80
2022/11/06 10:22:40;;;;;;;17.17;9.40;;;9.10;99.90;;;;;;4956371;29;20202;-77
2022/11/06 10:25:21;;;;;;;17.27;9.53;;;9.00;99.90;;;;;;4954782;29;20205;-77
2022/11/06 10:28:37;;;;;;;17.23;9.30;;;9.10;99.90;;;;;;4955864;29;20274;-74
2022/11/06 10:31:19;;;;;;;16.50;8.57;;;9.00;99.90;;;;;;4899659;29;20218;-76
2022/11/06 10:34:17;;;;;;;15.17;8.83;;;8.90;99.90;;;;;;4915699;29;20637;-76
2022/11/06 10:37:27;;;;;;;17.40;9.50;;;8.80;99.90;;;;;;4899575;29;20310;-77
2022/11/06 10:39:55;;;;;;;17.23;9.37;;;8.60;99.90;;;;;;4878109;29;20280;-77
2022/11/06 10:42:38;;;;;;;18.27;9.57;;;8.60;99.90;;;;;;4877933;29;20208;-77
2022/11/06 10:45:14;;;;;;;16.10;10.00;;;8.70;99.90;;;;;;4877674;29;20609;-75
2022/11/06 10:48:09;;;;;;;21.10;9.40;;;8.60;99.90;;;;;;4877613;29;20204;-76
2022/11/06 10:50:52;;;;;;;17.40;8.60;;;8.80;99.90;;;;;;4877741;29;20307;-77
2022/11/06 10:53:42;;;;;;;16.13;9.07;;;8.70;99.90;;;;;;4877703;29;20209;-77
2022/11/06 10:56:39;;;;;;;15.87;9.03;;;8.30;99.90;;;;;;4877736;29;20205;-80
2022/11/06 10:59:07;;;;;;;15.23;8.87;;;8.60;99.90;;;;;;4877594;29;20219;-77
2022/11/06 11:01:35;;;;;;;17.00;9.40;;;8.80;99.90;;;;;;4877789;29;20236;-76
2022/11/06 11:04:02;;;;;;;18.47;9.63;;;9.10;99.90;;;;;;4877657;29;20239;-79
2022/11/06 11:06:30;;;;;;;16.20;9.40;;;9.40;99.90;;;;;;4877743;29;20208;-81
2022/11/06 11:09:00;;;;;;;16.90;9.50;;;9.30;99.90;;;;;;4897219;29;20208;-86
2022/11/06 11:11:28;;;;;;;17.10;9.47;;;9.50;99.90;;;;;;4897424;29;20268;-80
2022/11/06 11:13:55;;;;;;;17.97;9.60;;;9.90;99.90;;;;;;4879379;29;20623;-83
2022/11/06 11:16:34;;;;;;;16.17;9.30;;;9.80;99.90;;;;;;4929914;29;20253;-86
2022/11/06 11:19:25;;;;;;;17.27;9.73;;;9.90;99.90;;;;;;4938044;29;20202;-80
2022/11/06 11:21:57;;;;;;;18.90;10.10;;;9.80;99.90;;;;;;4953599;28;20206;-82
2022/11/06 11:24:24;;;;;;;17.50;9.90;;;10.00;99.90;;;;;;4938546;29;20222;-88
2022/11/06 11:27:04;;;;;;;18.03;10.50;;;10.10;99.90;;;;;;4953799;29;20202;-86
2022/11/06 11:29:41;;;;;;;22.73;10.27;;;10.30;99.90;;;;;;4953750;29;20198;-85
2022/11/06 11:32:14;;;;;;;16.00;9.77;;;10.50;99.90;;;;;;4953757;29;20190;-78
2022/11/06 11:34:53;;;;;;;17.60;9.30;;;10.50;99.90;;;;;;4953796;28;20226;-78
2022/11/06 11:37:29;;;;;;;15.80;9.30;;;10.50;99.90;;;;;;4953858;29;20229;-80
2022/11/06 11:40:27;;;;;;;17.47;9.67;;;10.40;99.90;;;;;;4953530;28;20194;-81
2022/11/06 11:43:14;;;;;;;16.90;9.47;;;10.60;99.90;;;;;;4937398;29;20702;-83
2022/11/06 11:45:41;;;;;;;13.67;8.70;;;11.00;99.90;;;;;;4953298;29;20194;-83
2022/11/06 11:48:12;;;;;;;17.70;8.93;;;11.90;99.90;;;;;;4953135;29;20236;-86
2022/11/06 11:50:40;;;;;;;13.10;8.20;;;12.70;99.90;;;;;;4937841;29;20655;-83
2022/11/06 11:53:18;;;;;;;16.17;8.10;;;13.60;99.90;;;;;;4934385;29;20190;-84
2022/11/06 11:55:49;;;;;;;11.40;7.23;;;14.50;99.90;;;;;;4954489;29;20211;-85
2022/11/06 11:58:27;;;;;;;12.03;6.93;;;15.50;99.90;;;;;;4954939;29;20202;-82
2022/11/06 12:00:58;;;;;;;10.33;6.57;;;16.50;99.90;;;;;;4953308;29;20201;-89
2022/11/06 12:03:32;;;;;;;10.23;6.60;;;17.40;99.90;;;;;;4954832;29;20210;-83
2022/11/06 12:06:07;;;;;;;9.80;6.17;;;17.90;99.90;;;;;;4953338;29;20190;-86
2022/11/06 12:08:34;;;;;;;13.20;6.90;;;18.10;99.90;;;;;;4954927;29;20197;-85
2022/11/06 12:11:05;;;;;;;10.23;5.93;;;18.50;99.90;;;;;;4955090;29;20560;-84
2022/11/06 12:13:32;;;;;;;10.30;6.00;;;18.70;99.90;;;;;;4933679;29;20301;-77
2022/11/06 12:16:11;;;;;;;9.77;6.30;;;18.90;99.90;;;;;;4954459;29;20194;-82
2022/11/06 12:18:46;;;;;;;10.30;6.33;;;18.80;99.90;;;;;;4921553;29;20652;-82
2022/11/06 12:21:20;;;;;;;12.20;6.47;;;19.20;99.90;;;;;;4937478;29;20297;-74
2022/11/06 12:23:53;;;;;;;9.70;6.17;;;19.30;99.90;;;;;;4953319;29;20222;-85
2022/11/06 12:26:47;;;;;;;10.13;6.20;;;19.70;99.90;;;;;;4952986;29;20198;-82
2022/11/06 12:29:31;;;;;;;21.57;7.40;;;19.60;99.90;;;;;;4952866;29;20217;-84
2022/11/06 12:32:32;;;;;;;9.67;5.97;;;19.00;99.90;;;;;;4921271;29;20205;-82
2022/11/06 12:35:37;;;;;;;10.53;6.10;;;18.70;99.90;;;;;;4955078;28;20186;-85
2022/11/06 12:38:18;;;;;;;17.33;6.73;;;18.40;99.90;;;;;;4879721;29;20252;-84
2022/11/06 12:40:47;;;;;;;9.97;5.73;;;18.20;99.90;;;;;;4879667;29;20252;-85
2022/11/06 12:43:21;;;;;;;8.13;5.03;;;17.90;99.90;;;;;;4879630;29;20235;-84
2022/11/06 12:46:01;;;;;;;8.93;4.63;;;17.90;99.90;;;;;;4879702;29;20205;-85
2022/11/06 12:49:05;;;;;;;10.40;5.27;;;17.70;99.90;;;;;;4879486;29;20228;-84
2022/11/06 12:51:50;;;;;;;6.70;3.77;;;17.40;99.90;;;;;;4879771;29;20666;-82
2022/11/06 12:54:42;;;;;;;7.13;4.27;;;17.50;99.90;;;;;;4879670;29;20213;-76
2022/11/06 12:57:30;;;;;;;8.10;4.77;;;17.40;99.90;;;;;;4864068;29;20205;-83
2022/11/06 13:00:08;;;;;;;7.27;4.37;;;17.20;99.90;;;;;;4879721;29;20216;-86
2022/11/06 13:02:44;;;;;;;9.03;4.10;;;17.10;99.90;;;;;;4880328;29;20213;-94
2022/11/06 13:05:35;;;;;;;7.20;3.77;;;17.10;99.90;;;;;;4882286;29;20283;-91
2022/11/06 13:08:30;;;;;;;7.33;4.27;;;17.10;99.90;;;;;;4883768;29;20205;-76
2022/11/06 13:11:18;;;;;;;10.07;4.33;;;17.10;99.90;;;;;;4880157;29;20204;-82
2022/11/06 13:14:05;;;;;;;9.47;3.83;;;17.00;99.90;;;;;;4915529;29;20257;-84
2022/11/06 13:16:53;;;;;;;7.77;4.40;;;16.80;99.90;;;;;;4957429;29;20225;-92
2022/11/06 13:19:27;;;;;;;5.77;3.50;;;16.90;99.90;;;;;;4964138;29;20202;-86
2022/11/06 13:22:24;;;;;;;7.53;3.33;;;16.30;99.90;;;;;;4963407;29;20194;-89
2022/11/06 13:25:02;;;;;;;7.63;3.80;;;15.90;99.90;;;;;;4959703;29;20352;-94
2022/11/06 13:27:45;;;;;;;8.23;4.43;;;15.80;99.90;;;;;;4960884;29;20198;-83